createdAt,value
2018-10-17T00:01:46.759Z,97190.16
2018-10-17T00:04:14.324Z,97193.66
2018-10-17T00:06:41.917Z,97185.55
2018-10-17T00:09:10.495Z,97183.41
2018-10-17T00:11:38.146Z,97183.28
2018-10-17T00:14:06.069Z,97170.94
2018-10-17T00:16:33.668Z,97178.84
2018-10-17T00:19:01.253Z,97165.13
2018-10-17T00:21:28.895Z,97174.19
2018-10-17T00:23:56.479Z,97171.08
2018-10-17T00:26:24.102Z,97175.98
2018-10-17T00:28:51.685Z,97185.34
2018-10-17T00:31:19.658Z,97180.27
2018-10-17T00:33:47.148Z,97180.31
2018-10-17T00:36:14.671Z,97186.72
2018-10-17T00:38:42.239Z,97182.52
2018-10-17T00:41:09.778Z,97187.92
2018-10-17T00:43:37.231Z,97189.25
2018-10-17T00:46:05.195Z,97191.09
2018-10-17T00:48:32.745Z,97194.11
2018-10-17T00:51:00.855Z,97196.70
2018-10-17T00:53:28.537Z,97186.98
2018-10-17T00:55:56.142Z,97189.08
2018-10-17T00:58:23.746Z,97189.20
2018-10-17T01:00:51.316Z,97183.34
2018-10-17T01:03:18.846Z,97180.12
2018-10-17T01:05:46.422Z,97185.20
2018-10-17T01:08:13.947Z,97184.94
2018-10-17T01:10:41.496Z,97190.41
2018-10-17T01:13:09.204Z,97185.98
2018-10-17T01:15:36.686Z,97047.52
2018-10-17T01:18:04.268Z,97185.38
2018-10-17T01:20:31.898Z,97181.55
2018-10-17T01:22:59.510Z,97064.52
2018-10-17T01:25:27.198Z,97182.91
2018-10-17T01:27:54.854Z,97178.81
2018-10-17T01:30:22.469Z,97179.59
2018-10-17T01:32:50.138Z,97181.05
2018-10-17T01:35:17.821Z,97179.45
2018-10-17T01:37:45.352Z,97175.68
2018-10-17T01:40:13.129Z,97175.45
2018-10-17T01:42:41.342Z,97179.16
2018-10-17T01:45:09.554Z,97177.26
2018-10-17T01:47:37.152Z,97165.41
2018-10-17T01:50:05.422Z,97156.96
2018-10-17T01:52:33.042Z,97157.65
2018-10-17T01:55:00.625Z,97151.14
2018-10-17T01:57:28.393Z,97157.84
2018-10-17T01:59:56.065Z,97153.98
2018-10-17T02:02:23.758Z,97155.84
2018-10-17T02:04:51.417Z,97153.56
2018-10-17T02:07:19.035Z,97160.27
2018-10-17T02:09:46.645Z,97156.66
2018-10-17T02:12:14.234Z,97157.06
2018-10-17T02:14:41.924Z,97159.75
2018-10-17T02:17:09.553Z,97159.59
2018-10-17T02:19:37.327Z,97159.25
2018-10-17T02:22:04.969Z,97159.85
2018-10-17T02:24:32.636Z,97152.26
2018-10-17T02:27:00.316Z,97159.00
2018-10-17T02:29:28.351Z,97163.20
2018-10-17T02:31:56.230Z,97167.09
2018-10-17T02:34:23.824Z,96976.27
2018-10-17T02:36:51.559Z,97172.84
2018-10-17T02:39:19.129Z,97172.52
2018-10-17T02:41:46.869Z,97169.72
2018-10-17T02:44:14.551Z,97165.69
2018-10-17T02:46:42.179Z,97165.27
2018-10-17T02:49:09.893Z,97161.45
2018-10-17T02:51:37.414Z,97160.92
2018-10-17T02:54:06.124Z,97162.61
2018-10-17T02:56:33.754Z,97164.16
2018-10-17T02:59:01.576Z,97164.72
2018-10-17T03:01:29.082Z,97169.52
2018-10-17T03:03:57.123Z,97171.55
2018-10-17T03:06:24.857Z,97180.45
2018-10-17T03:08:52.629Z,97179.64
2018-10-17T03:11:20.348Z,97181.45
2018-10-17T03:13:48.035Z,97181.06
2018-10-17T03:16:15.747Z,97183.13
2018-10-17T03:18:43.345Z,97185.36
2018-10-17T03:21:10.979Z,97188.48
2018-10-17T03:23:38.661Z,97186.83
2018-10-17T03:26:06.320Z,97191.36
2018-10-17T03:28:33.999Z,97187.30
2018-10-17T03:31:01.675Z,97192.20
2018-10-17T03:33:29.591Z,97192.80
2018-10-17T03:35:57.163Z,97192.22
2018-10-17T03:38:24.798Z,97189.59
2018-10-17T03:40:52.552Z,97191.22
2018-10-17T03:43:20.204Z,97193.44
2018-10-17T03:45:47.813Z,97196.69
2018-10-17T03:48:15.894Z,97192.36
2018-10-17T03:50:43.476Z,97191.78
2018-10-17T03:53:11.050Z,97195.02
2018-10-17T03:55:38.634Z,97192.33
2018-10-17T03:58:06.281Z,97188.55
2018-10-17T04:00:34.196Z,97197.92
2018-10-17T04:03:01.913Z,97198.96
2018-10-17T04:05:29.479Z,97197.05
2018-10-17T04:07:57.048Z,97193.86
2018-10-17T04:10:24.646Z,97206.38
2018-10-17T04:12:52.205Z,97206.58
2018-10-17T04:15:19.718Z,97210.45
2018-10-17T04:17:47.303Z,97210.55
2018-10-17T04:20:14.865Z,97204.92
2018-10-17T04:22:51.125Z,97195.35
2018-10-17T04:25:18.785Z,97200.88
2018-10-17T04:27:46.240Z,97203.25
2018-10-17T04:30:13.770Z,97207.00
2018-10-17T04:32:41.240Z,97194.28
2018-10-17T04:35:08.754Z,97204.45
2018-10-17T04:37:37.009Z,97194.09
2018-10-17T04:40:04.779Z,97211.95
2018-10-17T04:42:32.283Z,97195.23
2018-10-17T04:44:59.759Z,97195.27
2018-10-17T04:47:27.498Z,97191.27
2018-10-17T04:49:54.986Z,97195.48
2018-10-17T04:52:22.519Z,97200.39
2018-10-17T04:54:50.019Z,97203.99
2018-10-17T04:57:17.479Z,97205.53
2018-10-17T04:59:45.146Z,97201.06
2018-10-17T05:02:12.634Z,97202.38
2018-10-17T05:04:40.226Z,97202.30
2018-10-17T05:07:08.392Z,97203.26
2018-10-17T05:09:42.724Z,97192.27
2018-10-17T05:12:10.322Z,97202.94
2018-10-17T05:14:37.966Z,97200.34
2018-10-17T05:17:05.673Z,97199.48
2018-10-17T05:19:33.164Z,97206.73
2018-10-17T05:22:00.678Z,97207.80
2018-10-17T05:24:28.186Z,97207.44
2018-10-17T05:26:55.739Z,97202.47
2018-10-17T05:29:29.939Z,97204.22
2018-10-17T05:31:57.394Z,97202.02
2018-10-17T05:34:25.281Z,97203.33
2018-10-17T05:36:52.805Z,97202.02
2018-10-17T05:39:20.252Z,97208.91
2018-10-17T05:41:47.732Z,97212.16
2018-10-17T05:44:15.336Z,97217.06
2018-10-17T05:46:42.852Z,97215.47
2018-10-17T05:49:10.330Z,97214.59
2018-10-17T05:51:37.902Z,97216.39
2018-10-17T05:54:05.474Z,97215.08
2018-10-17T05:56:32.957Z,97213.58
2018-10-17T05:59:00.478Z,97215.22
2018-10-17T06:01:28.142Z,97218.92
2018-10-17T06:03:55.554Z,97208.33
2018-10-17T06:06:23.034Z,97216.47
2018-10-17T06:08:50.650Z,97222.17
2018-10-17T06:11:18.168Z,97219.39
2018-10-17T06:13:45.673Z,97219.30
2018-10-17T06:16:13.185Z,97222.70
2018-10-17T06:18:40.731Z,97225.27
2018-10-17T06:21:08.201Z,97224.89
2018-10-17T06:23:35.739Z,97158.02
2018-10-17T06:26:03.218Z,97223.32
2018-10-17T06:28:30.943Z,97220.95
2018-10-17T06:30:58.450Z,97222.48
2018-10-17T06:33:25.992Z,97215.73
2018-10-17T06:35:53.432Z,97214.62
2018-10-17T06:38:20.958Z,97218.37
2018-10-17T06:40:48.402Z,97218.63
2018-10-17T06:43:15.987Z,97215.83
2018-10-17T06:45:43.449Z,97224.95
2018-10-17T06:48:10.994Z,97221.53
2018-10-17T06:50:38.492Z,97225.28
2018-10-17T06:53:06.049Z,97225.02
2018-10-17T06:55:33.542Z,97225.05
2018-10-17T06:58:01.063Z,97224.56
2018-10-17T07:00:28.545Z,97232.80
2018-10-17T07:02:56.016Z,97229.94
2018-10-17T07:05:23.613Z,97229.49
2018-10-17T07:07:51.199Z,97234.02
2018-10-17T07:10:18.644Z,97234.84
2018-10-17T07:12:46.086Z,97239.49
2018-10-17T07:15:13.626Z,97241.81
2018-10-17T07:17:41.143Z,97242.86
2018-10-17T07:20:09.086Z,97238.80
2018-10-17T07:22:36.557Z,97239.05
2018-10-17T07:25:05.762Z,97238.34
2018-10-17T07:27:38.521Z,97247.77
2018-10-17T07:30:07.553Z,97246.23
2018-10-17T07:32:35.112Z,97246.17
2018-10-17T07:35:02.792Z,97244.19
2018-10-17T07:37:30.288Z,97243.71
2018-10-17T07:39:57.736Z,97239.03
2018-10-17T07:42:25.220Z,97241.41
2018-10-17T07:44:52.642Z,97247.70
2018-10-17T07:47:20.255Z,97246.34
2018-10-17T07:49:47.731Z,97250.37
2018-10-17T07:52:15.136Z,97252.66
2018-10-17T07:54:42.684Z,97255.12
2018-10-17T07:57:10.210Z,97254.25
2018-10-17T07:59:37.663Z,97253.12
2018-10-17T08:02:05.199Z,97250.55
2018-10-17T08:04:32.704Z,97244.98
2018-10-17T08:07:00.226Z,97250.30
2018-10-17T08:09:27.651Z,97244.75
2018-10-17T08:11:55.929Z,97246.05
2018-10-17T08:14:23.517Z,97251.03
2018-10-17T08:16:51.121Z,97248.20
2018-10-17T08:19:18.530Z,97251.31
2018-10-17T08:21:45.998Z,97251.56
2018-10-17T08:24:13.569Z,97246.71
2018-10-17T08:26:40.929Z,97252.31
2018-10-17T08:29:08.369Z,97247.17
2018-10-17T08:31:35.809Z,97245.02
2018-10-17T08:34:03.321Z,97245.95
2018-10-17T08:36:31.009Z,97244.52
2018-10-17T08:38:58.264Z,97237.30
2018-10-17T08:41:25.724Z,97246.48
2018-10-17T08:43:53.215Z,97237.91
2018-10-17T08:46:20.668Z,97240.78
2018-10-17T08:48:48.080Z,97241.58
2018-10-17T08:51:15.516Z,97241.53
2018-10-17T08:53:42.975Z,97246.62
2018-10-17T08:56:10.541Z,97239.12
2018-10-17T08:58:37.861Z,97243.74
2018-10-17T09:01:05.442Z,97244.08
2018-10-17T09:03:32.862Z,97241.48
2018-10-17T09:06:00.268Z,97239.22
2018-10-17T09:08:27.807Z,97233.00
2018-10-17T09:10:55.214Z,97229.08
2018-10-17T09:13:22.724Z,97227.80
2018-10-17T09:15:50.186Z,97230.30
2018-10-17T09:18:17.832Z,97227.78
2018-10-17T09:20:45.416Z,97223.44
2018-10-17T09:23:12.779Z,97233.58
2018-10-17T09:25:40.501Z,97226.97
2018-10-17T09:28:08.017Z,97234.05
2018-10-17T09:30:35.451Z,97234.08
2018-10-17T09:33:02.971Z,97240.48
2018-10-17T09:35:30.524Z,97239.26
2018-10-17T09:37:58.212Z,97245.15
2018-10-17T09:40:25.771Z,97241.98
2018-10-17T09:42:53.231Z,97246.44
2018-10-17T09:45:20.762Z,97233.87
2018-10-17T09:47:48.352Z,97243.47
2018-10-17T09:50:15.824Z,97235.88
2018-10-17T09:52:43.264Z,97236.16
2018-10-17T09:55:10.664Z,97232.89
2018-10-17T09:57:38.090Z,97233.84
2018-10-17T10:00:11.706Z,97230.78
2018-10-17T10:02:39.088Z,97227.85
2018-10-17T10:05:06.526Z,97223.05
2018-10-17T10:07:34.066Z,97224.59
2018-10-17T10:10:01.537Z,97223.27
2018-10-17T10:12:28.972Z,97223.50
2018-10-17T10:14:56.540Z,97217.48
2018-10-17T10:17:24.088Z,97218.05
2018-10-17T10:19:51.429Z,97213.47
2018-10-17T10:22:18.881Z,97206.16
2018-10-17T10:24:46.465Z,97206.16
2018-10-17T10:27:13.880Z,97206.70
2018-10-17T10:29:41.391Z,97201.61
2018-10-17T10:32:09.959Z,97202.36
2018-10-17T10:34:37.354Z,97191.58
2018-10-17T10:37:05.029Z,97197.51
2018-10-17T10:39:32.447Z,97193.33
2018-10-17T10:41:59.938Z,97194.41
2018-10-17T10:44:27.344Z,97186.32
2018-10-17T10:46:54.886Z,97187.85
2018-10-17T10:49:22.334Z,97180.75
2018-10-17T10:51:49.826Z,97179.28
2018-10-17T10:54:17.353Z,97179.13
2018-10-17T10:56:44.763Z,97174.67
2018-10-17T10:59:12.355Z,97173.13
2018-10-17T11:01:39.739Z,97173.50
2018-10-17T11:04:07.257Z,97167.83
2018-10-17T11:06:34.779Z,97165.67
2018-10-17T11:09:02.189Z,97165.48
2018-10-17T11:11:29.630Z,97155.28
2018-10-17T11:13:57.126Z,97157.98
2018-10-17T11:16:24.595Z,97158.22
2018-10-17T11:18:52.049Z,96977.07
2018-10-17T11:21:19.437Z,97154.02
2018-10-17T11:23:46.837Z,97156.34
2018-10-17T11:26:14.230Z,97147.30
2018-10-17T11:28:41.649Z,97149.41
2018-10-17T11:31:09.066Z,97150.23
2018-10-17T11:33:36.507Z,97148.39
2018-10-17T11:36:03.982Z,96963.93
2018-10-17T11:38:31.383Z,97141.38
2018-10-17T11:40:58.826Z,97140.49
2018-10-17T11:43:26.224Z,97137.41
2018-10-17T11:45:53.771Z,97141.01
2018-10-17T11:48:21.423Z,97140.63
2018-10-17T11:50:48.935Z,97136.34
2018-10-17T11:53:16.500Z,97138.61
2018-10-17T11:55:43.880Z,97139.79
2018-10-17T11:58:11.445Z,97137.50
2018-10-17T12:00:38.828Z,97132.66
2018-10-17T12:03:06.331Z,97127.78
2018-10-17T12:05:34.217Z,97125.72
2018-10-17T12:08:01.395Z,97121.97
2018-10-17T12:10:28.852Z,97028.34
2018-10-17T12:12:56.379Z,97112.78
2018-10-17T12:15:23.856Z,97107.79
2018-10-17T12:17:51.415Z,97102.66
2018-10-17T12:20:18.850Z,97095.48
2018-10-17T12:22:46.221Z,97090.34
2018-10-17T12:25:14.113Z,97085.12
2018-10-17T12:27:41.633Z,97084.39
2018-10-17T12:30:11.491Z,97089.98
2018-10-17T12:32:38.929Z,97091.92
2018-10-17T12:35:06.768Z,97088.23
2018-10-17T12:37:35.209Z,97086.21
2018-10-17T12:40:02.881Z,97089.27
2018-10-17T12:42:30.344Z,97084.35
2018-10-17T12:44:57.887Z,97088.03
2018-10-17T12:47:25.287Z,97090.13
2018-10-17T12:49:53.016Z,97082.63
2018-10-17T12:52:20.433Z,97076.85
2018-10-17T12:54:47.948Z,97080.90
2018-10-17T12:57:15.463Z,97082.07
2018-10-17T12:59:43.947Z,97078.89
2018-10-17T13:02:11.666Z,97079.84
2018-10-17T13:04:39.599Z,97075.84
2018-10-17T13:07:08.237Z,97080.38
2018-10-17T13:09:35.936Z,97079.94
2018-10-17T13:12:03.632Z,97081.66
2018-10-17T13:14:32.157Z,97078.16
2018-10-17T13:16:59.970Z,97081.00
2018-10-17T13:19:27.658Z,97077.06
2018-10-17T13:21:55.129Z,97076.53
2018-10-17T13:24:22.698Z,97072.19
2018-10-17T13:26:50.512Z,97070.88
2018-10-17T13:29:18.098Z,97071.63
2018-10-17T13:31:45.613Z,97069.43
2018-10-17T13:34:13.563Z,97063.77
2018-10-17T13:36:41.163Z,97061.41
2018-10-17T13:39:11.257Z,97060.47
2018-10-17T13:41:39.341Z,97055.53
2018-10-17T13:44:07.706Z,97054.23
2018-10-17T13:46:35.315Z,97055.28
2018-10-17T13:49:03.089Z,97053.20
2018-10-17T13:51:30.648Z,97048.75
2018-10-17T13:53:58.356Z,97048.30
2018-10-17T13:56:25.937Z,97045.92
2018-10-17T13:58:53.447Z,97048.44
2018-10-17T14:01:21.222Z,97047.45
2018-10-17T14:03:48.857Z,97042.79
2018-10-17T14:06:16.937Z,97039.56
2018-10-17T14:08:44.815Z,97036.23
2018-10-17T14:11:12.426Z,97033.42
2018-10-17T14:13:40.393Z,97032.17
2018-10-17T14:16:09.324Z,97036.66
2018-10-17T14:18:37.079Z,97037.66
2018-10-17T14:21:04.920Z,97037.11
2018-10-17T14:23:32.665Z,97043.34
2018-10-17T14:26:00.464Z,97040.41
2018-10-17T14:28:28.164Z,97038.89
2018-10-17T14:30:56.010Z,97038.27
2018-10-17T14:33:23.882Z,97028.17
2018-10-17T14:35:51.637Z,97029.12
2018-10-17T14:38:19.298Z,97032.72
2018-10-17T14:40:47.695Z,97032.41
2018-10-17T14:43:15.798Z,97036.26
2018-10-17T14:45:43.555Z,97031.73
2018-10-17T14:48:11.426Z,97034.72
2018-10-17T14:50:39.155Z,97036.34
2018-10-17T14:53:09.441Z,97033.58
2018-10-17T14:55:38.255Z,97033.32
2018-10-17T14:58:06.454Z,97030.09
2018-10-17T15:00:34.374Z,97036.61
2018-10-17T15:03:02.345Z,97031.30
2018-10-17T15:05:30.518Z,97036.91
2018-10-17T15:07:59.317Z,97035.96
2018-10-17T15:10:31.417Z,97041.63
2018-10-17T15:12:59.286Z,97037.95
2018-10-17T15:15:28.536Z,97042.11
2018-10-17T15:17:56.786Z,97041.28
2018-10-17T15:20:24.690Z,97031.54
2018-10-17T15:22:53.620Z,97032.78
2018-10-17T15:25:21.495Z,97034.58
2018-10-17T15:27:49.317Z,97037.45
2018-10-17T15:30:17.616Z,97030.97
2018-10-17T15:32:45.720Z,97034.80
2018-10-17T15:35:13.465Z,97031.31
2018-10-17T15:37:41.462Z,97034.73
2018-10-17T15:40:09.280Z,97039.59
2018-10-17T15:42:37.094Z,97040.31
2018-10-17T15:45:06.501Z,97037.94
2018-10-17T15:47:34.508Z,97037.85
2018-10-17T15:50:02.291Z,97050.62
2018-10-17T15:52:30.101Z,97040.72
2018-10-17T15:54:57.807Z,96818.60
2018-10-17T15:57:25.543Z,97041.72
2018-10-17T16:02:59.455Z,97044.92
2018-10-17T16:05:27.188Z,97044.91
2018-10-17T16:07:54.777Z,97046.35
2018-10-17T16:10:22.140Z,97045.50
2018-10-17T16:12:49.541Z,97044.61
2018-10-17T16:15:16.952Z,97046.86
2018-10-17T16:17:44.321Z,97038.76
2018-10-17T16:20:12.524Z,97043.20
2018-10-17T16:22:40.134Z,97044.29
2018-10-17T16:25:08.156Z,97049.39
2018-10-17T16:27:35.582Z,97054.59
2018-10-17T16:30:03.417Z,97056.53
2018-10-17T16:32:34.182Z,97055.36
2018-10-17T16:35:02.350Z,97057.05
2018-10-17T16:50:24.373Z,97055.72
2018-10-17T16:52:52.024Z,97069.19
2018-10-17T16:55:19.494Z,97077.53
2018-10-17T16:57:46.949Z,97079.59
2018-10-17T17:00:14.443Z,97077.61
2018-10-17T17:02:41.794Z,97080.18
2018-10-17T17:05:11.555Z,97080.98
2018-10-17T17:07:39.257Z,97080.20
2018-10-17T17:10:07.194Z,97081.87
2018-10-17T17:12:34.594Z,97081.55
2018-10-17T17:15:02.261Z,97081.48
2018-10-17T17:17:29.658Z,97086.02
2018-10-17T17:19:57.320Z,97092.02
2018-10-17T17:22:24.755Z,97091.14
2018-10-17T17:24:52.166Z,97093.34
2018-10-17T17:27:20.029Z,97090.66
2018-10-17T17:29:47.460Z,97089.86
2018-10-17T17:32:14.788Z,97091.05
2018-10-17T17:34:42.729Z,97098.78
2018-10-17T17:37:10.142Z,97095.98
2018-10-17T17:39:37.621Z,97101.62
2018-10-17T17:42:05.139Z,97101.73
2018-10-17T17:44:32.635Z,97100.84
2018-10-17T17:46:59.988Z,97105.34
2018-10-17T17:49:27.488Z,97101.45
2018-10-17T17:51:55.087Z,97097.43
2018-10-17T17:54:22.606Z,97102.34
2018-10-17T17:56:49.990Z,97109.11
2018-10-17T17:59:17.485Z,97110.77
2018-10-17T18:01:44.971Z,97114.50
2018-10-17T18:04:12.398Z,97117.94
2018-10-17T18:06:39.928Z,97115.23
2018-10-17T18:09:08.754Z,97116.16
2018-10-17T18:11:36.238Z,97117.55
2018-10-17T18:14:03.973Z,97116.53
2018-10-17T18:16:31.406Z,97122.24
2018-10-17T18:18:58.941Z,97133.26
2018-10-17T18:21:31.907Z,97121.34
2018-10-17T18:23:59.396Z,97123.99
2018-10-17T18:26:26.879Z,97122.48
2018-10-17T18:28:54.407Z,97125.27
2018-10-17T18:31:21.934Z,97120.13
2018-10-17T18:33:49.470Z,97125.34
2018-10-17T18:36:17.031Z,97129.56
2018-10-17T18:38:44.561Z,97132.08
2018-10-17T18:41:12.073Z,97128.92
2018-10-17T18:43:39.654Z,97128.93
2018-10-17T18:46:07.494Z,97126.95
2018-10-17T18:48:35.040Z,97135.87
2018-10-17T18:51:02.570Z,97134.69
2018-10-17T18:53:30.043Z,97139.99
2018-10-17T18:55:57.623Z,97141.31
2018-10-17T18:58:25.244Z,97142.50
2018-10-17T19:00:52.687Z,97143.68
2018-10-17T19:03:20.301Z,97149.53
2018-10-17T19:05:47.788Z,97145.64
2018-10-17T19:08:15.377Z,97149.60
2018-10-17T19:10:43.137Z,97153.96
2018-10-17T19:13:10.719Z,97156.59
2018-10-17T19:15:38.357Z,97153.95
2018-10-17T19:18:06.007Z,97156.75
2018-10-17T19:20:33.780Z,97158.25
2018-10-17T19:23:01.441Z,97153.56
2018-10-17T19:25:28.838Z,97154.09
2018-10-17T19:27:56.417Z,97153.16
2018-10-17T19:30:24.509Z,97149.58
2018-10-17T19:32:54.211Z,97156.13
2018-10-17T19:35:22.312Z,97153.66
2018-10-17T19:37:50.373Z,97161.10
2018-10-17T19:40:18.226Z,97163.28
2018-10-17T19:42:46.427Z,97170.19
2018-10-17T19:45:14.509Z,97171.50
2018-10-17T19:47:42.596Z,97176.75
2018-10-17T19:50:10.597Z,97172.52
2018-10-17T19:52:38.347Z,97177.08
2018-10-17T19:55:07.970Z,97181.64
2018-10-17T19:57:35.777Z,97178.91
2018-10-17T20:00:04.349Z,97185.83
2018-10-17T20:02:33.615Z,97182.02
2018-10-17T20:05:01.235Z,97187.81
2018-10-17T20:07:30.005Z,97179.91
2018-10-17T20:09:57.807Z,97175.42
2018-10-17T20:12:26.203Z,97179.87
2018-10-17T20:14:54.122Z,97014.89
2018-10-17T20:17:22.488Z,97181.71
2018-10-17T20:19:50.399Z,97184.38
2018-10-17T20:22:18.816Z,97173.13
2018-10-17T20:24:46.860Z,97170.21
2018-10-17T20:27:22.599Z,97180.11
2018-10-17T20:29:50.368Z,97179.08
2018-10-17T20:32:18.036Z,97180.00
2018-10-17T20:34:46.023Z,97185.88
2018-10-17T20:37:13.375Z,97185.88
2018-10-17T20:39:40.702Z,97188.41
2018-10-17T20:42:08.105Z,97182.69
2018-10-17T20:44:35.610Z,97181.06
2018-10-17T20:47:08.552Z,97184.95
2018-10-17T20:49:37.223Z,97185.50
2018-10-17T20:52:04.634Z,97184.92
2018-10-17T20:54:32.123Z,97176.78
2018-10-17T20:56:59.503Z,97188.58
2018-10-17T20:59:26.902Z,97187.25
2018-10-17T21:01:54.389Z,97177.12
2018-10-17T21:04:21.776Z,97191.94
2018-10-17T21:06:49.211Z,97196.10
2018-10-17T21:09:16.591Z,97180.74
2018-10-17T21:11:44.018Z,97191.54
2018-10-17T21:14:11.700Z,97196.31
2018-10-17T21:16:40.033Z,97195.66
2018-10-17T21:19:07.766Z,97195.83
2018-10-17T21:21:35.155Z,97188.63
2018-10-17T21:24:02.603Z,97200.33
2018-10-17T21:26:30.053Z,97200.14
2018-10-17T21:28:57.381Z,97201.06
2018-10-17T21:31:24.768Z,97197.09
2018-10-17T21:33:52.055Z,97200.99
2018-10-17T21:36:19.706Z,97204.23
2018-10-17T21:38:47.132Z,97198.59
2018-10-17T21:41:14.517Z,97201.63
2018-10-17T21:43:41.983Z,97192.68
2018-10-17T21:46:09.362Z,97195.70
2018-10-17T21:48:36.737Z,97195.44
2018-10-17T21:51:04.392Z,97194.27
2018-10-17T21:53:31.774Z,97193.48
2018-10-17T21:55:59.157Z,97195.88
2018-10-17T21:58:26.517Z,97188.27
2018-10-17T22:00:53.814Z,97189.59
2018-10-17T22:03:21.191Z,97179.72
2018-10-17T22:05:48.586Z,97184.85
2018-10-17T22:08:16.024Z,97189.59
2018-10-17T22:10:43.383Z,97181.22
2018-10-17T22:13:10.739Z,97179.03
2018-10-17T22:15:41.254Z,97182.23
2018-10-17T22:18:08.641Z,97174.41
2018-10-17T22:20:36.017Z,97176.59
2018-10-17T22:23:03.374Z,97178.05
2018-10-17T22:25:30.814Z,97175.63
2018-10-17T22:27:58.347Z,97175.87
2018-10-17T22:30:25.741Z,97180.20
2018-10-17T22:32:53.137Z,97172.63
2018-10-17T22:35:20.458Z,97175.50
2018-10-17T22:37:47.835Z,97166.16
2018-10-17T22:40:15.193Z,97169.88
2018-10-17T22:42:42.595Z,97174.67
2018-10-17T22:45:09.919Z,97174.48
2018-10-17T22:47:37.348Z,97175.22
2018-10-17T22:50:06.099Z,97175.88
2018-10-17T22:52:33.474Z,97176.72
2018-10-17T22:55:00.866Z,97174.65
2018-10-17T22:57:28.249Z,97174.11
2018-10-17T22:59:55.644Z,97175.48
2018-10-17T23:02:22.978Z,97175.72
2018-10-17T23:04:50.339Z,97182.03
2018-10-17T23:07:17.734Z,97180.01
2018-10-17T23:09:45.113Z,97168.64
2018-10-17T23:12:12.485Z,97183.81
2018-10-17T23:14:39.795Z,97182.30
2018-10-17T23:17:07.146Z,97179.44
2018-10-17T23:19:34.517Z,97183.56
2018-10-17T23:22:01.913Z,97187.19
2018-10-17T23:24:29.304Z,97190.50
2018-10-17T23:26:56.740Z,97183.28
2018-10-17T23:29:24.145Z,97182.57
2018-10-17T23:31:51.582Z,97184.50
2018-10-17T23:34:18.959Z,97184.02
2018-10-17T23:36:46.309Z,97179.03
2018-10-17T23:39:13.634Z,97177.41
2018-10-17T23:41:41.060Z,97182.91
2018-10-17T23:44:08.676Z,97180.14
2018-10-17T23:46:35.982Z,97175.73
2018-10-17T23:49:03.482Z,97183.30
2018-10-17T23:51:30.886Z,97179.81
2018-10-17T23:53:58.270Z,97182.52
2018-10-17T23:56:25.643Z,97176.47
2018-10-17T23:58:53.013Z,97176.08
